Time;durP1;ratioP1;P1;durP2;ratioP2;P2;SDS_P1;SDS_P2;PMS_P1;PMS_P2;Temp;Humidity;BMP_temperature;BMP_pressure;BME280_temperature;BME280_humidity;BME280_pressure;Samples;Min_cycle;Max_cycle;Signal;HPM_P1;HPM_P2
2024/01/05 00:02:15;;;;;;;5.88;1.20;;;24.40;99.90;;;;;;5060590;28;20206;-79
2024/01/05 00:04:45;;;;;;;5.78;1.30;;;24.50;99.90;;;;;;5066565;28;20748;-79
2024/01/05 00:07:16;;;;;;;5.75;1.58;;;24.60;99.90;;;;;;5065760;28;20728;-80
2024/01/05 00:09:47;;;;;;;5.70;1.50;;;24.60;99.90;;;;;;5068694;28;20216;-80
2024/01/05 00:12:18;;;;;;;7.30;1.70;;;24.60;99.90;;;;;;5069337;28;20204;-80
2024/01/05 00:14:48;;;;;;;5.43;1.40;;;24.70;99.90;;;;;;5080092;28;20199;-80
2024/01/05 00:17:21;;;;;;;6.95;2.30;;;24.80;99.90;;;;;;5063748;28;20216;-80
2024/01/05 00:19:52;;;;;;;9.73;2.35;;;24.90;99.90;;;;;;5063959;28;20224;-81
2024/01/05 00:22:22;;;;;;;3.63;1.23;;;25.20;99.90;;;;;;5055471;28;20214;-81
2024/01/05 00:24:53;;;;;;;5.68;1.42;;;25.30;99.90;;;;;;5063942;28;20207;-81
2024/01/05 00:27:24;;;;;;;3.03;1.20;;;25.40;99.90;;;;;;5075452;28;20191;-80
2024/01/05 00:29:55;;;;;;;6.57;1.58;;;25.50;99.90;;;;;;5090195;28;20195;-80
2024/01/05 00:32:27;;;;;;;6.55;1.70;;;25.60;99.90;;;;;;5090379;28;20215;-80
2024/01/05 00:34:58;;;;;;;6.82;1.67;;;25.60;99.90;;;;;;5090076;28;20257;-80
2024/01/05 00:37:29;;;;;;;4.97;1.17;;;25.70;99.90;;;;;;5083661;28;20210;-80
2024/01/05 00:40:00;;;;;;;6.38;1.38;;;25.80;99.90;;;;;;5066133;28;20232;-80
2024/01/05 00:42:31;;;;;;;5.65;1.50;;;25.80;99.90;;;;;;5067383;28;20230;-80
2024/01/05 00:45:02;;;;;;;6.13;1.30;;;25.80;99.90;;;;;;5075035;28;20294;-80
2024/01/05 00:47:34;;;;;;;4.75;1.10;;;25.80;99.90;;;;;;5049777;28;20279;-80
2024/01/05 00:50:05;;;;;;;4.90;1.50;;;25.70;99.90;;;;;;5057968;28;20200;-80
2024/01/05 00:52:36;;;;;;;3.75;1.10;;;25.60;99.90;;;;;;5069743;28;20303;-81
2024/01/05 00:55:07;;;;;;;5.53;1.65;;;25.70;99.90;;;;;;5067112;28;20202;-79
2024/01/05 00:57:38;;;;;;;5.20;1.20;;;25.80;99.90;;;;;;5049740;28;20283;-80
2024/01/05 01:00:10;;;;;;;5.57;1.27;;;25.90;99.90;;;;;;5053955;28;20228;-81
2024/01/05 01:02:42;;;;;;;5.30;1.02;;;26.00;99.90;;;;;;5072607;28;20199;-81
2024/01/05 01:05:13;;;;;;;7.90;1.60;;;26.00;99.90;;;;;;5063934;28;20200;-81
2024/01/05 01:07:44;;;;;;;5.03;1.33;;;26.00;99.90;;;;;;5072706;28;20226;-80
2024/01/05 01:10:15;;;;;;;8.20;1.45;;;26.00;99.90;;;;;;5057392;28;20188;-80
2024/01/05 01:12:45;;;;;;;6.00;1.40;;;26.00;99.90;;;;;;5072162;28;20195;-80
2024/01/05 01:15:16;;;;;;;3.60;1.40;;;26.00;99.90;;;;;;5079493;28;20210;-80
2024/01/05 01:17:49;;;;;;;7.40;1.42;;;26.00;99.90;;;;;;5060952;28;20204;-80
2024/01/05 01:20:22;;;;;;;5.13;1.70;;;26.00;99.90;;;;;;5067326;28;20230;-80
2024/01/05 01:22:53;;;;;;;4.00;1.60;;;25.90;99.90;;;;;;5069744;28;20187;-81
2024/01/05 01:25:24;;;;;;;4.45;1.20;;;25.90;99.90;;;;;;5071659;28;20577;-80
2024/01/05 01:27:55;;;;;;;4.53;1.55;;;25.90;99.90;;;;;;5071717;28;20196;-80
2024/01/05 01:30:26;;;;;;;4.60;1.63;;;25.80;99.90;;;;;;5053466;28;20205;-82
2024/01/05 01:32:58;;;;;;;4.05;1.27;;;25.80;99.90;;;;;;5053525;28;20201;-82
2024/01/05 01:35:29;;;;;;;6.97;1.55;;;25.80;99.90;;;;;;5068776;28;20199;-81
2024/01/05 01:38:00;;;;;;;5.28;1.30;;;25.90;99.90;;;;;;5070364;28;20214;-81
2024/01/05 01:40:31;;;;;;;4.43;1.40;;;25.90;99.90;;;;;;5070298;28;20223;-83
2024/01/05 01:43:02;;;;;;;8.18;1.80;;;25.90;99.90;;;;;;5062205;28;20246;-79
2024/01/05 01:45:34;;;;;;;5.10;1.70;;;26.00;99.90;;;;;;5072131;28;20271;-82
2024/01/05 01:48:07;;;;;;;5.90;2.03;;;25.90;99.90;;;;;;5069905;28;20226;-82
2024/01/05 01:50:38;;;;;;;4.30;1.25;;;25.90;99.90;;;;;;5062419;28;20201;-83
2024/01/05 01:53:09;;;;;;;4.88;1.20;;;25.90;99.90;;;;;;5052709;28;20200;-82
2024/01/05 01:55:40;;;;;;;4.20;1.27;;;25.80;99.90;;;;;;5068179;28;20207;-83
2024/01/05 01:58:12;;;;;;;3.33;1.20;;;25.80;99.90;;;;;;5065410;28;20204;-81
2024/01/05 02:00:42;;;;;;;3.72;1.38;;;25.70;99.90;;;;;;5066856;28;20669;-77
2024/01/05 02:03:16;;;;;;;5.18;1.20;;;25.70;99.90;;;;;;5068309;28;20199;-81
2024/01/05 02:05:49;;;;;;;5.70;1.25;;;25.60;99.90;;;;;;5068239;28;20730;-83
2024/01/05 02:08:20;;;;;;;5.60;1.58;;;25.50;99.90;;;;;;5052064;28;20687;-81
2024/01/05 02:10:51;;;;;;;5.75;1.50;;;25.50;99.90;;;;;;5064081;28;20199;-81
2024/01/05 02:13:22;;;;;;;4.57;1.33;;;25.50;99.90;;;;;;5070475;28;20195;-81
2024/01/05 02:15:53;;;;;;;5.82;1.20;;;25.50;99.90;;;;;;5070052;28;20208;-81
2024/01/05 02:18:25;;;;;;;7.03;1.40;;;25.60;99.90;;;;;;5056599;28;20216;-80
2024/01/05 02:20:57;;;;;;;4.40;1.13;;;25.60;99.90;;;;;;5069003;28;20220;-81
2024/01/05 02:23:30;;;;;;;3.53;1.30;;;25.60;99.90;;;;;;5071677;28;20196;-80
2024/01/05 02:26:02;;;;;;;5.75;1.23;;;25.60;99.90;;;;;;5069795;28;20622;-82
2024/01/05 02:28:33;;;;;;;4.28;1.20;;;25.60;99.90;;;;;;5074088;28;20261;-81
2024/01/05 02:31:02;;;;;;;4.30;1.38;;;25.60;99.90;;;;;;5083543;28;20200;-84
2024/01/05 02:33:33;;;;;;;4.45;1.13;;;25.50;99.90;;;;;;5072240;28;20242;-83
2024/01/05 02:36:03;;;;;;;4.68;1.17;;;25.50;99.90;;;;;;5071808;28;20295;-83
2024/01/05 02:38:36;;;;;;;6.72;1.20;;;25.60;99.90;;;;;;5061617;28;20566;-81
2024/01/05 02:41:08;;;;;;;3.20;1.30;;;25.60;99.90;;;;;;5073641;28;20230;-82
2024/01/05 02:43:39;;;;;;;5.53;1.15;;;25.60;99.90;;;;;;5073435;28;20690;-81
2024/01/05 02:46:10;;;;;;;5.85;1.23;;;25.70;99.90;;;;;;5064982;28;20202;-81
2024/01/05 02:48:44;;;;;;;3.25;1.10;;;25.60;99.90;;;;;;5071877;28;20419;-81
2024/01/05 02:51:15;;;;;;;4.15;1.20;;;25.60;99.90;;;;;;5063615;28;20239;-82
2024/01/05 02:53:47;;;;;;;7.20;1.50;;;25.80;99.90;;;;;;5069909;28;20658;-81
2024/01/05 02:56:23;;;;;;;4.57;1.30;;;25.70;99.90;;;;;;5057287;28;20193;-81
2024/01/05 02:58:55;;;;;;;4.97;1.00;;;25.70;99.90;;;;;;5070619;28;20202;-81
2024/01/05 03:01:25;;;;;;;3.83;1.02;;;25.70;99.90;;;;;;5063038;28;20575;-81
2024/01/05 03:03:57;;;;;;;8.23;1.17;;;25.80;99.90;;;;;;5065804;28;20193;-81
2024/01/05 03:06:28;;;;;;;3.63;1.13;;;25.80;99.90;;;;;;5063760;28;20263;-81
2024/01/05 03:09:00;;;;;;;6.65;1.15;;;25.80;99.90;;;;;;5069979;28;20188;-80
2024/01/05 03:11:31;;;;;;;5.03;1.33;;;25.90;99.90;;;;;;5071402;28;20231;-80
2024/01/05 03:14:02;;;;;;;3.65;1.20;;;26.00;99.90;;;;;;5063114;28;20199;-80
2024/01/05 03:16:33;;;;;;;2.63;1.20;;;26.10;99.90;;;;;;5071656;28;20250;-80
2024/01/05 03:19:04;;;;;;;6.18;1.48;;;26.30;99.90;;;;;;5070257;28;20203;-80
2024/01/05 03:21:34;;;;;;;2.72;1.20;;;26.30;99.90;;;;;;5071031;28;20216;-79
2024/01/05 03:24:08;;;;;;;3.42;1.00;;;26.60;99.90;;;;;;5069281;28;20199;-80
2024/01/05 03:26:38;;;;;;;1.92;0.90;;;26.70;99.90;;;;;;5065625;28;20200;-82
2024/01/05 03:29:09;;;;;;;3.88;1.23;;;26.80;99.90;;;;;;5068486;28;20195;-81
2024/01/05 03:31:40;;;;;;;4.95;1.10;;;26.80;99.90;;;;;;5064919;28;20192;-80
2024/01/05 03:34:11;;;;;;;1.90;0.82;;;27.00;99.90;;;;;;5082604;28;20642;-80
2024/01/05 03:36:41;;;;;;;3.60;0.90;;;27.10;99.90;;;;;;5076671;28;20218;-80
2024/01/05 03:39:14;;;;;;;3.17;1.00;;;27.00;99.90;;;;;;5062375;28;20200;-79
2024/01/05 03:41:45;;;;;;;4.20;1.00;;;26.90;99.90;;;;;;5070430;28;20220;-79
2024/01/05 03:44:20;;;;;;;4.88;1.20;;;26.90;99.90;;;;;;5069998;28;20196;-79
2024/01/05 03:46:51;;;;;;;3.00;0.90;;;26.80;99.90;;;;;;5072243;28;20253;-79
2024/01/05 03:49:22;;;;;;;4.55;1.27;;;26.70;99.90;;;;;;5085686;28;20650;-79
2024/01/05 03:51:53;;;;;;;5.97;1.40;;;26.70;99.90;;;;;;5071441;28;20211;-78
2024/01/05 03:54:26;;;;;;;2.53;1.10;;;26.70;99.90;;;;;;5071179;28;20200;-79
2024/01/05 03:56:57;;;;;;;2.95;0.93;;;26.80;99.90;;;;;;5069704;28;20195;-80
2024/01/05 03:59:27;;;;;;;3.20;1.10;;;26.80;99.90;;;;;;5051357;28;20212;-79
2024/01/05 04:01:58;;;;;;;4.95;1.00;;;26.70;99.90;;;;;;5059818;28;20239;-79
2024/01/05 04:04:29;;;;;;;4.43;1.27;;;26.70;99.90;;;;;;5068964;28;20199;-78
2024/01/05 04:07:00;;;;;;;4.15;0.93;;;26.40;99.90;;;;;;5049715;28;20228;-79
2024/01/05 04:09:32;;;;;;;4.60;1.00;;;26.30;99.90;;;;;;5055196;28;20200;-79
2024/01/05 04:12:03;;;;;;;3.83;0.95;;;26.30;99.90;;;;;;5062222;28;20196;-80
2024/01/05 04:14:34;;;;;;;4.72;1.10;;;26.40;99.90;;;;;;5049173;28;20244;-79
2024/01/05 04:17:05;;;;;;;5.28;1.00;;;26.40;99.90;;;;;;5059503;28;20282;-80
2024/01/05 04:19:35;;;;;;;2.78;1.00;;;26.40;99.90;;;;;;5069820;28;20196;-80
2024/01/05 04:22:07;;;;;;;3.65;0.88;;;26.50;99.90;;;;;;5069845;28;20227;-80
2024/01/05 04:24:39;;;;;;;3.63;0.95;;;26.60;99.90;;;;;;5067105;28;20196;-80
2024/01/05 04:27:10;;;;;;;5.95;1.58;;;26.70;99.90;;;;;;5069770;28;20192;-80
2024/01/05 04:29:41;;;;;;;6.18;1.08;;;26.70;99.90;;;;;;5067976;28;20206;-80
2024/01/05 04:32:11;;;;;;;2.50;1.10;;;26.80;99.90;;;;;;5061878;28;20200;-80
2024/01/05 04:34:42;;;;;;;3.85;1.10;;;26.80;99.90;;;;;;5056519;28;20192;-79
2024/01/05 04:37:13;;;;;;;3.78;1.20;;;26.90;99.90;;;;;;5073601;28;20196;-79
2024/01/05 04:39:45;;;;;;;6.03;1.23;;;27.00;99.90;;;;;;5073712;28;20195;-79
2024/01/05 04:42:16;;;;;;;3.45;0.95;;;27.00;99.90;;;;;;5073746;28;20224;-80
2024/01/05 04:44:47;;;;;;;3.70;0.80;;;27.10;99.90;;;;;;5062374;28;20200;-79
2024/01/05 04:47:18;;;;;;;3.13;0.90;;;27.20;99.90;;;;;;5073257;28;20195;-79
2024/01/05 04:49:49;;;;;;;4.28;1.10;;;27.30;99.90;;;;;;5069520;28;20189;-81
2024/01/05 04:52:20;;;;;;;4.07;1.05;;;27.10;99.90;;;;;;5058407;28;20969;-80
2024/01/05 04:54:52;;;;;;;6.35;1.10;;;27.20;99.90;;;;;;5087984;28;20214;-81
2024/01/05 04:57:23;;;;;;;4.35;1.17;;;27.30;99.90;;;;;;5093895;28;20693;-84
2024/01/05 04:59:54;;;;;;;4.05;1.00;;;27.20;99.90;;;;;;5085397;28;20204;-79
2024/01/05 05:02:25;;;;;;;5.07;1.00;;;27.20;99.90;;;;;;5074125;28;20698;-81
2024/01/05 05:04:55;;;;;;;2.97;1.02;;;27.20;99.90;;;;;;5072129;28;20285;-81
2024/01/05 05:07:26;;;;;;;4.00;1.10;;;27.30;99.90;;;;;;5067971;28;20273;-81
2024/01/05 05:09:59;;;;;;;3.88;1.00;;;27.30;99.90;;;;;;5073347;28;20234;-81
2024/01/05 05:12:30;;;;;;;4.13;1.30;;;27.30;99.90;;;;;;5072707;28;20208;-82
2024/01/05 05:15:00;;;;;;;2.85;0.90;;;27.40;99.90;;;;;;5076944;28;20572;-82
2024/01/05 05:17:31;;;;;;;2.42;0.70;;;27.50;99.90;;;;;;5071792;28;20196;-82
2024/01/05 05:20:02;;;;;;;4.00;0.77;;;27.70;99.90;;;;;;5076733;28;20196;-83
2024/01/05 05:22:33;;;;;;;2.45;0.77;;;27.80;99.90;;;;;;5060740;28;20236;-82
2024/01/05 05:25:06;;;;;;;3.95;1.10;;;27.80;99.90;;;;;;5070847;28;20220;-83
2024/01/05 05:27:36;;;;;;;4.03;0.90;;;27.90;99.90;;;;;;5073176;28;20283;-81
2024/01/05 05:30:09;;;;;;;1.92;0.80;;;28.00;99.90;;;;;;5073253;28;20216;-81
2024/01/05 05:32:40;;;;;;;3.00;0.85;;;28.00;99.90;;;;;;5073087;28;20230;-81
2024/01/05 05:35:11;;;;;;;2.47;0.70;;;27.90;99.90;;;;;;5064563;28;20207;-80
2024/01/05 05:37:41;;;;;;;4.32;0.90;;;28.00;99.90;;;;;;5053446;28;20208;-79
2024/01/05 05:40:15;;;;;;;2.25;0.80;;;28.00;99.90;;;;;;5052832;28;20197;-80
2024/01/05 05:42:46;;;;;;;2.28;0.90;;;28.20;99.90;;;;;;5059690;28;20224;-81
2024/01/05 05:45:17;;;;;;;2.13;0.73;;;28.40;99.90;;;;;;5065805;28;20210;-80
2024/01/05 05:47:48;;;;;;;2.92;0.70;;;28.50;99.90;;;;;;5072515;28;20253;-81
2024/01/05 05:50:18;;;;;;;3.25;1.10;;;28.50;99.90;;;;;;5053213;28;20204;-80
2024/01/05 05:52:51;;;;;;;2.53;0.75;;;28.40;99.90;;;;;;5052130;28;20529;-80
2024/01/05 05:55:24;;;;;;;2.72;0.95;;;28.30;99.90;;;;;;5052642;28;20201;-81
2024/01/05 05:57:55;;;;;;;5.05;0.90;;;28.30;99.90;;;;;;5052586;28;20204;-81
2024/01/05 06:00:26;;;;;;;5.82;1.10;;;28.40;99.90;;;;;;5055264;28;20239;-80
2024/01/05 06:02:57;;;;;;;3.05;0.93;;;28.50;99.90;;;;;;5068081;28;20670;-80
2024/01/05 06:05:28;;;;;;;3.38;1.00;;;28.60;99.90;;;;;;5071480;28;20200;-81
2024/01/05 06:07:59;;;;;;;1.95;0.80;;;29.00;99.90;;;;;;5052307;28;20699;-80
2024/01/05 06:10:31;;;;;;;3.47;0.80;;;29.50;97.90;;;;;;5069462;28;20196;-80
2024/01/05 06:13:02;;;;;;;3.13;1.02;;;29.60;95.90;;;;;;5068658;28;20207;-80
2024/01/05 06:15:33;;;;;;;4.72;0.88;;;29.90;96.00;;;;;;5072228;28;20196;-82
2024/01/05 06:18:04;;;;;;;5.32;1.00;;;30.30;94.60;;;;;;5071343;28;20192;-81
2024/01/05 06:20:35;;;;;;;2.88;0.82;;;30.40;94.40;;;;;;5071734;28;20191;-81
2024/01/05 06:23:05;;;;;;;5.72;1.00;;;30.60;93.80;;;;;;5056262;28;20224;-81
2024/01/05 06:25:38;;;;;;;3.92;0.70;;;30.50;93.50;;;;;;5079269;28;20278;-82
2024/01/05 06:28:09;;;;;;;4.20;0.70;;;30.70;92.70;;;;;;5073992;28;20196;-83
2024/01/05 06:30:40;;;;;;;2.88;0.93;;;30.80;91.20;;;;;;5072008;28;20192;-83
2024/01/05 06:33:11;;;;;;;3.63;1.63;;;31.00;91.20;;;;;;5071785;28;20275;-82
2024/01/05 06:35:42;;;;;;;3.70;1.38;;;31.00;90.00;;;;;;5070090;28;20195;-80
2024/01/05 06:38:12;;;;;;;3.72;1.10;;;30.70;90.80;;;;;;5055765;28;20703;-82
2024/01/05 06:40:45;;;;;;;2.40;0.75;;;30.70;90.50;;;;;;5052904;28;20686;-80
2024/01/05 06:43:16;;;;;;;3.50;0.75;;;30.60;90.70;;;;;;5066677;28;20227;-80
2024/01/05 06:45:46;;;;;;;4.30;0.90;;;30.20;90.60;;;;;;5073497;28;20196;-78
2024/01/05 06:48:17;;;;;;;4.97;0.80;;;30.20;91.10;;;;;;5072136;28;20298;-79
2024/01/05 06:50:48;;;;;;;3.67;1.00;;;30.90;90.00;;;;;;5086752;28;20195;-80
2024/01/05 06:53:19;;;;;;;4.38;2.10;;;31.60;86.60;;;;;;5051498;28;20193;-78
2024/01/05 06:55:52;;;;;;;4.82;2.08;;;31.50;83.60;;;;;;5072146;28;20198;-79
2024/01/05 06:58:23;;;;;;;2.45;1.00;;;30.90;86.30;;;;;;5089091;28;20202;-78
2024/01/05 07:00:54;;;;;;;2.65;0.98;;;30.40;86.60;;;;;;5076085;28;20214;-80
2024/01/05 07:03:25;;;;;;;2.47;0.80;;;30.20;86.40;;;;;;5057205;28;20228;-79
2024/01/05 07:05:55;;;;;;;5.15;1.02;;;29.70;89.70;;;;;;5061112;28;20198;-79
2024/01/05 07:08:26;;;;;;;2.53;0.85;;;29.40;91.60;;;;;;5080203;28;20232;-82
2024/01/05 07:10:59;;;;;;;2.72;0.88;;;29.40;91.30;;;;;;5079377;28;20290;-79
2024/01/05 07:13:31;;;;;;;4.18;0.95;;;29.50;90.90;;;;;;5070145;28;20287;-81
2024/01/05 07:16:02;;;;;;;3.33;0.95;;;29.10;91.20;;;;;;5067538;28;20199;-79
2024/01/05 07:18:33;;;;;;;4.10;1.00;;;28.80;91.60;;;;;;5070280;28;20253;-80
2024/01/05 07:21:10;;;;;;;3.92;1.05;;;28.50;92.70;;;;;;5088168;28;20184;-80
2024/01/05 07:23:41;;;;;;;3.20;1.23;;;28.30;93.40;;;;;;5090607;28;20205;-79
2024/01/05 07:26:13;;;;;;;3.58;1.30;;;28.30;93.50;;;;;;5073951;28;20200;-79
2024/01/05 07:28:44;;;;;;;3.17;1.20;;;28.90;93.80;;;;;;5066565;28;20183;-78
2024/01/05 07:31:15;;;;;;;3.80;1.10;;;29.80;92.00;;;;;;5086179;28;20222;-80
2024/01/05 07:33:46;;;;;;;2.80;1.05;;;30.60;89.30;;;;;;5090915;28;20199;-79
2024/01/05 07:36:17;;;;;;;2.72;1.00;;;31.40;85.50;;;;;;5062431;28;20215;-79
2024/01/05 07:38:47;;;;;;;4.03;1.10;;;32.10;82.10;;;;;;5050169;28;20192;-80
2024/01/05 07:41:23;;;;;;;3.08;1.40;;;32.30;79.20;;;;;;5065488;28;20227;-82
2024/01/05 07:43:53;;;;;;;3.45;1.10;;;32.20;78.10;;;;;;5052185;28;20284;-77
2024/01/05 07:46:27;;;;;;;4.10;1.48;;;32.40;78.00;;;;;;5060455;28;20549;-77
2024/01/05 07:48:57;;;;;;;2.50;0.80;;;32.70;77.60;;;;;;5060260;28;20197;-78
2024/01/05 07:51:28;;;;;;;5.63;1.10;;;32.90;76.60;;;;;;5051957;28;20192;-78
2024/01/05 07:53:59;;;;;;;3.95;1.33;;;33.00;76.70;;;;;;5069650;28;20295;-77
2024/01/05 07:56:39;;;;;;;3.67;1.13;;;33.00;77.30;;;;;;5070528;28;20200;-78
2024/01/05 07:59:10;;;;;;;3.38;0.82;;;32.70;74.40;;;;;;5061825;28;20204;-78
2024/01/05 08:01:41;;;;;;;4.65;1.20;;;32.30;74.40;;;;;;5057123;28;20227;-79
2024/01/05 08:04:12;;;;;;;7.28;1.20;;;32.20;76.30;;;;;;5050151;28;20216;-80
2024/01/05 08:06:43;;;;;;;4.50;1.30;;;31.70;77.30;;;;;;5065348;28;20227;-80
2024/01/05 08:09:13;;;;;;;4.55;1.10;;;31.30;79.20;;;;;;5083340;28;20194;-81
2024/01/05 08:11:46;;;;;;;3.03;0.90;;;31.00;79.50;;;;;;5074837;28;20202;-79
2024/01/05 08:14:17;;;;;;;5.22;1.27;;;30.30;82.80;;;;;;5064536;28;20199;-79
2024/01/05 08:16:48;;;;;;;2.35;0.90;;;29.90;84.30;;;;;;5072012;28;20276;-79
2024/01/05 08:19:19;;;;;;;4.30;1.10;;;29.30;86.70;;;;;;5083977;28;20199;-79
2024/01/05 08:21:50;;;;;;;2.97;1.10;;;28.60;88.10;;;;;;5069406;28;20243;-79
2024/01/05 08:24:21;;;;;;;4.70;1.00;;;28.20;90.70;;;;;;5067300;28;20241;-79
2024/01/05 08:26:54;;;;;;;2.05;0.88;;;27.70;92.30;;;;;;5068331;28;20947;-78
2024/01/05 08:29:25;;;;;;;3.17;1.23;;;27.20;94.80;;;;;;5069482;28;20196;-78
2024/01/05 08:31:55;;;;;;;3.72;1.15;;;26.90;95.30;;;;;;5069595;28;20204;-79
2024/01/05 08:34:26;;;;;;;5.80;0.95;;;26.60;96.30;;;;;;5064304;28;20659;-79
2024/01/05 08:36:57;;;;;;;3.78;1.30;;;26.40;97.30;;;;;;5053757;28;20563;-80
2024/01/05 08:39:28;;;;;;;4.57;1.35;;;26.20;98.90;;;;;;5052451;28;20266;-79
2024/01/05 08:42:13;;;;;;;4.88;2.80;;;26.00;99.90;;;;;;5067597;28;20216;-78
2024/01/05 08:44:44;;;;;;;3.70;1.70;;;25.90;99.90;;;;;;5061365;28;20196;-79
2024/01/05 08:47:15;;;;;;;3.40;1.98;;;25.70;99.90;;;;;;5049425;28;20219;-79
2024/01/05 08:49:51;;;;;;;4.75;2.25;;;25.50;99.90;;;;;;5063587;28;20218;-79
2024/01/05 08:52:36;;;;;;;4.93;1.67;;;25.30;99.90;;;;;;5074419;28;20199;-81
2024/01/05 08:55:11;;;;;;;3.70;1.02;;;25.10;99.90;;;;;;5077437;28;20196;-78
2024/01/05 08:57:46;;;;;;;3.78;1.30;;;25.00;99.90;;;;;;5083456;28;20657;-81
2024/01/05 09:00:18;;;;;;;4.90;1.40;;;25.00;99.90;;;;;;5070361;28;20195;-78
2024/01/05 09:02:55;;;;;;;3.10;1.35;;;24.90;99.90;;;;;;5070378;28;20216;-79
2024/01/05 09:05:29;;;;;;;3.65;1.30;;;24.80;99.90;;;;;;5060513;28;20236;-79
2024/01/05 09:08:03;;;;;;;2.15;1.35;;;24.80;99.90;;;;;;5059733;28;20239;-80
2024/01/05 09:10:34;;;;;;;3.95;1.15;;;24.80;99.90;;;;;;5049763;28;20203;-80
2024/01/05 09:13:07;;;;;;;5.07;1.60;;;24.70;99.90;;;;;;5050071;28;20253;-81
2024/01/05 09:15:43;;;;;;;3.20;1.58;;;24.60;99.90;;;;;;5049609;28;20223;-81
2024/01/05 09:18:19;;;;;;;2.92;1.10;;;24.60;99.90;;;;;;5064414;28;20216;-80
2024/01/05 09:20:52;;;;;;;4.20;1.20;;;24.60;99.90;;;;;;5069097;28;20203;-80
2024/01/05 09:23:28;;;;;;;3.03;1.02;;;24.60;99.90;;;;;;5073540;28;20223;-79
2024/01/05 09:26:05;;;;;;;2.90;1.17;;;24.60;99.90;;;;;;5086308;28;20191;-78
2024/01/05 09:28:37;;;;;;;2.50;1.10;;;24.60;99.90;;;;;;5086727;28;20227;-77
2024/01/05 09:31:09;;;;;;;3.75;1.40;;;24.60;99.90;;;;;;5073489;28;20674;-79
2024/01/05 09:33:40;;;;;;;6.50;1.67;;;24.50;99.90;;;;;;5066663;28;20564;-80
2024/01/05 09:36:14;;;;;;;2.90;1.55;;;24.40;99.90;;;;;;5044446;28;20204;-78
2024/01/05 09:38:55;;;;;;;4.03;1.73;;;24.40;99.90;;;;;;5057602;28;20551;-78
2024/01/05 09:41:26;;;;;;;2.85;1.20;;;24.40;99.90;;;;;;5069839;28;20239;-78
2024/01/05 09:44:00;;;;;;;4.10;1.55;;;24.30;99.90;;;;;;5088281;28;20229;-77
2024/01/05 09:46:40;;;;;;;2.33;1.10;;;24.30;99.90;;;;;;5079568;28;20233;-78
2024/01/05 09:49:20;;;;;;;3.42;1.10;;;24.20;99.90;;;;;;5072916;28;20359;-76
2024/01/05 09:52:07;;;;;;;5.55;1.38;;;24.20;99.90;;;;;;5079909;28;20191;-78
2024/01/05 09:54:48;;;;;;;3.72;1.20;;;24.20;99.90;;;;;;5061186;28;20194;-79
2024/01/05 09:57:27;;;;;;;3.38;1.10;;;24.30;99.90;;;;;;5074530;28;20669;-79
2024/01/05 10:00:18;;;;;;;5.18;1.50;;;24.30;99.90;;;;;;5072715;28;20662;-77
2024/01/05 10:03:04;;;;;;;3.17;1.15;;;24.30;99.90;;;;;;5060995;28;20223;-78
2024/01/05 10:05:35;;;;;;;2.70;0.93;;;24.20;99.90;;;;;;5070537;28;20195;-79
2024/01/05 10:08:23;;;;;;;5.28;1.45;;;24.30;99.90;;;;;;5068698;28;20580;-79
2024/01/05 10:10:59;;;;;;;4.70;1.65;;;24.20;99.90;;;;;;5072604;28;20644;-78
2024/01/05 10:13:32;;;;;;;5.20;1.77;;;24.20;99.90;;;;;;5070556;28;20306;-78
2024/01/05 10:16:10;;;;;;;4.45;1.90;;;24.20;99.90;;;;;;5072655;28;20199;-78
2024/01/05 10:19:04;;;;;;;3.40;1.55;;;24.20;99.90;;;;;;5072074;28;20215;-78
2024/01/05 10:21:48;;;;;;;4.65;1.75;;;24.10;99.90;;;;;;5052315;28;20284;-78
2024/01/05 10:24:30;;;;;;;4.65;1.27;;;24.10;99.90;;;;;;5062872;28;20282;-78
2024/01/05 10:27:07;;;;;;;4.32;1.38;;;24.10;99.90;;;;;;5062766;28;20646;-77
2024/01/05 10:29:42;;;;;;;4.93;1.20;;;24.10;99.90;;;;;;5075410;28;20201;-77
2024/01/05 10:32:19;;;;;;;4.57;1.30;;;24.00;99.90;;;;;;5070976;28;20219;-78
2024/01/05 10:34:51;;;;;;;3.30;1.15;;;24.00;99.90;;;;;;5074663;28;20222;-78
2024/01/05 10:37:23;;;;;;;3.92;1.15;;;23.90;99.90;;;;;;5085852;28;20196;-78
2024/01/05 10:39:56;;;;;;;3.35;1.35;;;23.90;99.90;;;;;;5074595;28;20603;-81
2024/01/05 10:42:28;;;;;;;2.88;1.25;;;24.00;99.90;;;;;;5088693;28;20206;-83
2024/01/05 10:45:01;;;;;;;3.53;1.23;;;24.00;99.90;;;;;;5079292;28;20222;-80
2024/01/05 10:47:33;;;;;;;4.97;1.10;;;23.90;99.90;;;;;;5083010;28;20197;-81
2024/01/05 10:50:06;;;;;;;4.18;1.30;;;23.90;99.90;;;;;;5085447;28;20290;-81
2024/01/05 10:52:37;;;;;;;4.20;1.00;;;23.80;99.90;;;;;;5070971;28;20726;-81
2024/01/05 10:55:09;;;;;;;5.38;1.20;;;23.80;99.90;;;;;;5076958;28;20203;-81
2024/01/05 10:57:40;;;;;;;4.20;1.05;;;23.80;99.90;;;;;;5082143;28;20203;-81
2024/01/05 11:00:13;;;;;;;5.25;1.20;;;23.80;99.90;;;;;;5052921;28;20228;-80
2024/01/05 11:02:49;;;;;;;3.33;1.20;;;23.80;99.90;;;;;;5071288;28;20958;-79
2024/01/05 11:05:19;;;;;;;2.25;0.82;;;23.70;99.90;;;;;;5070237;28;20196;-79
2024/01/05 11:07:52;;;;;;;4.13;1.10;;;23.70;99.90;;;;;;5068722;28;20307;-78
2024/01/05 11:10:33;;;;;;;2.97;1.00;;;23.70;99.90;;;;;;5071403;28;20207;-78
2024/01/05 11:13:29;;;;;;;5.93;1.40;;;23.80;99.90;;;;;;5071507;28;20615;-78
2024/01/05 11:16:23;;;;;;;1.90;0.80;;;23.70;99.90;;;;;;5071569;28;20187;-78
2024/01/05 11:19:19;;;;;;;3.75;1.10;;;23.70;99.90;;;;;;5066083;28;20199;-79
2024/01/05 11:21:56;;;;;;;3.75;0.90;;;23.70;99.90;;;;;;5082280;28;20187;-80
2024/01/05 11:24:27;;;;;;;2.92;1.10;;;23.70;99.90;;;;;;5088850;28;20256;-80
2024/01/05 11:26:59;;;;;;;4.40;1.10;;;23.70;99.90;;;;;;5058476;28;20196;-80
2024/01/05 11:29:59;;;;;;;3.17;0.80;;;23.70;99.90;;;;;;5069868;28;20608;-79
2024/01/05 11:32:37;;;;;;;2.13;0.70;;;23.70;99.90;;;;;;5009447;28;20202;-79
2024/01/05 11:35:44;;;;;;;3.90;1.10;;;23.80;99.90;;;;;;5062556;28;20307;-77
2024/01/05 11:38:32;;;;;;;1.90;0.70;;;23.70;99.90;;;;;;5060114;28;20216;-78
2024/01/05 11:41:17;;;;;;;3.42;1.15;;;23.70;99.90;;;;;;5069409;28;20192;-79
2024/01/05 11:43:48;;;;;;;4.35;0.98;;;23.70;99.90;;;;;;5060021;28;20222;-78
2024/01/05 11:46:19;;;;;;;4.00;1.00;;;23.80;99.90;;;;;;5073012;28;20704;-78
2024/01/05 11:48:50;;;;;;;4.68;0.93;;;23.80;99.90;;;;;;5076411;28;20208;-78
2024/01/05 11:51:23;;;;;;;3.92;1.13;;;23.70;99.90;;;;;;5071434;28;20204;-78
2024/01/05 11:53:54;;;;;;;3.28;0.90;;;23.80;99.90;;;;;;5076901;28;20334;-78
2024/01/05 11:56:26;;;;;;;5.90;1.17;;;23.80;99.90;;;;;;5085615;23;20231;-78
2024/01/05 11:58:56;;;;;;;3.53;1.00;;;23.80;99.90;;;;;;5091569;22;21266;-78
2024/01/05 12:01:28;;;;;;;3.28;1.02;;;23.80;99.90;;;;;;5089096;28;20684;-78
2024/01/05 12:03:59;;;;;;;2.95;1.02;;;23.70;99.90;;;;;;5081267;28;20215;-78
2024/01/05 12:06:31;;;;;;;4.95;1.00;;;23.70;99.90;;;;;;5080410;28;20208;-77
2024/01/05 12:09:05;;;;;;;3.83;0.85;;;23.70;99.90;;;;;;5091080;28;20218;-78
2024/01/05 12:11:35;;;;;;;3.65;1.25;;;23.70;99.90;;;;;;5086162;28;20183;-77
2024/01/05 12:14:06;;;;;;;3.78;1.25;;;23.60;99.90;;;;;;5084589;28;20234;-78
2024/01/05 12:16:37;;;;;;;4.88;1.13;;;23.60;99.90;;;;;;5087597;28;20211;-77
2024/01/05 12:19:08;;;;;;;2.85;1.10;;;23.60;99.90;;;;;;5086367;28;20195;-77
2024/01/05 12:21:41;;;;;;;2.72;0.90;;;23.60;99.90;;;;;;5087616;28;20238;-80
2024/01/05 12:24:15;;;;;;;3.03;0.90;;;23.60;99.90;;;;;;5079830;28;20234;-78
2024/01/05 12:26:48;;;;;;;2.13;0.90;;;23.60;99.90;;;;;;5086052;28;20199;-77
2024/01/05 12:29:19;;;;;;;3.67;1.00;;;23.60;99.90;;;;;;5090790;28;20230;-77
2024/01/05 12:31:50;;;;;;;3.33;0.88;;;23.60;99.90;;;;;;5087962;28;20281;-78
2024/01/05 12:34:21;;;;;;;3.05;0.95;;;23.60;99.90;;;;;;5080099;28;20204;-78
2024/01/05 12:36:54;;;;;;;5.80;1.15;;;23.60;99.90;;;;;;5069772;28;20196;-78
2024/01/05 12:39:27;;;;;;;3.60;1.08;;;23.60;99.90;;;;;;5080999;28;20199;-76
2024/01/05 12:41:59;;;;;;;2.83;0.90;;;23.60;99.90;;;;;;5090453;28;20200;-76
2024/01/05 12:44:30;;;;;;;2.35;0.80;;;23.60;99.90;;;;;;5007965;28;20222;-77
2024/01/05 12:47:02;;;;;;;4.82;1.10;;;23.60;99.90;;;;;;5007835;28;20198;-78
2024/01/05 12:49:38;;;;;;;3.50;0.90;;;23.60;99.90;;;;;;5060788;28;20203;-78
2024/01/05 12:52:11;;;;;;;4.25;0.88;;;23.60;99.90;;;;;;5090062;28;20593;-78
2024/01/05 12:54:45;;;;;;;4.75;1.38;;;23.60;99.90;;;;;;5105018;28;20198;-78
2024/01/05 12:57:16;;;;;;;2.92;1.00;;;23.50;99.90;;;;;;5113120;28;20200;-78
2024/01/05 12:59:48;;;;;;;2.97;0.82;;;23.40;99.90;;;;;;5114244;28;20222;-78
2024/01/05 13:02:18;;;;;;;3.38;1.13;;;23.40;99.90;;;;;;5106989;28;20278;-77
2024/01/05 13:04:49;;;;;;;3.05;0.90;;;23.40;99.90;;;;;;5082726;28;20234;-77
2024/01/05 13:07:22;;;;;;;5.30;1.20;;;23.40;99.90;;;;;;5092940;28;20203;-77
2024/01/05 13:09:52;;;;;;;3.70;0.80;;;23.40;99.90;;;;;;5086274;28;20191;-77
2024/01/05 13:12:27;;;;;;;4.47;0.90;;;23.40;99.90;;;;;;5088048;28;20217;-77
2024/01/05 13:14:57;;;;;;;2.97;0.95;;;23.30;99.90;;;;;;5092158;28;20277;-78
2024/01/05 13:17:33;;;;;;;3.90;0.90;;;23.30;99.90;;;;;;5089557;28;20218;-78